Flight Track Log - Related Links

Times and Time Zones

All times are in EDT time to prevent confusion due to time zone crossing. See the KAP5 flight status page for this flight to view local times or setup timezone preferences in your user account.

Time Position Orientation Groundspeed Altitude Reporting Facility
EDT Latitude Longitude Course Direction KTS MPH feet Rate Location/Type
Sun 09:26:32 AM 42.3667 -71.0167 236° Southwest 114 131 400  Level KA90
Sun 09:27:38 AM 42.3500 -71.0500 236° Southwest 115 132 1,500 1,095 Climbing KA90
Sun 09:28:38 AM 42.3500 -71.1000 270° West 113 130 2,700 1,048 Climbing KA90
Sun 09:29:44 AM 42.3333 -71.1333 236° Southwest 115 132 3,700 1,000 Climbing KA90
Sun 09:30:44 AM 42.3333 -71.1833 270° West 124 143 4,800 900 Climbing KA90
Sun 09:31:44 AM 42.3333 -71.2333 270° West 121 139 5,500 632 Climbing KA90
Sun 09:32:38 AM 42.3333 -71.2667 270° West 121 139 6,000 632 Climbing KA90
Sun 09:33:38 AM 42.3167 -71.3167 246° West 118 136 6,700 650 Climbing KA90
Sun 09:34:38 AM 42.3167 -71.3667 270° West 115 132 7,300 550 Climbing KA90
Sun 09:35:38 AM 42.3167 -71.4000 270° West 115 132 7,800 331 Climbing KA90
Sun 09:36:45 AM 42.3044 -71.4575 254° West 123 142 8,000 90 Climbing Boston Center
Sun 09:37:52 AM 42.2967 -71.5250 261° West 154 177 8,000  Level Boston Center
Sun 09:38:53 AM 42.2908 -71.5842 262° West 158 182 8,000  Level Boston Center
Sun 09:39:54 AM 42.2850 -71.6431 262° West 158 182 8,000  Level Boston Center
Sun 09:40:55 AM 42.2792 -71.6992 262° West 157 181 8,000  Level Boston Center
Sun 09:41:56 AM 42.2733 -71.7583 262° West 156 180 8,000  Level Boston Center
Sun 09:42:56 AM 42.2653 -71.8228 260° West 159 183 8,000  Level Boston Center
Sun 09:43:57 AM 42.2678 -71.8789 273° West 156 180 8,000  Level Boston Center
Sun 09:44:58 AM 42.2700 -71.9350 273° West 148 170 8,000  Level Boston Center
Sun 09:45:59 AM 42.2703 -71.9883 270° West 144 166 8,000  Level Boston Center
Sun 09:47:00 AM 42.2725 -72.0444 273° West 145 167 8,000  Level Boston Center
Sun 09:47:54 AM 42.2789 -72.0922 280° West 144 166 8,000  Level Boston Center
Sun 09:49:19 AM 42.2981 -72.1650 290° West 145 167 8,000  Level Boston Center
Sun 09:50:14 AM 42.3125 -72.2069 295° West 145 167 8,000  Level Boston Center
Sun 09:51:15 AM 42.3272 -72.2631 290° West 145 167 8,000  Level Boston Center
Sun 09:52:04 AM 42.3378 -72.3053 289° West 150 173 8,000  Level Boston Center
Sun 09:53:11 AM 42.3544 -72.3642 291° West 145 167 8,000  Level Boston Center
Sun 09:54:18 AM 42.3692 -72.4175 291° West 145 167 8,000  Level Boston Center
Sun 09:55:12 AM 42.3817 -72.4625 291° West 144 166 8,000  Level Boston Center
Sun 09:56:19 AM 42.3983 -72.5244 290° West 145 167 8,000  Level Boston Center
Sun 09:57:14 AM 42.4128 -72.5694 294° West 145 167 8,000  Level Boston Center
Sun 09:58:21 AM 42.4272 -72.6258 289° West 146 168 8,000  Level Boston Center
Sun 09:59:16 AM 42.4419 -72.6736 293° West 147 169 8,000  Level Boston Center
Sun 10:00:04 AM 42.4542 -72.7158 291° West 151 174 8,000  Level Boston Center
Sun 10:00:52 AM 42.4644 -72.7608 287° West 148 170 8,000  Level Boston Center
Sun 10:01:53 AM 42.4811 -72.8117 294° West 145 167 8,000  Level Boston Center
Sun 10:02:54 AM 42.4956 -72.8597 292° West 144 166 8,000  Level Boston Center
Sun 10:03:54 AM 42.5078 -72.9075 289° West 141 162 8,000  Level Boston Center
Sun 10:04:55 AM 42.5200 -72.9611 287° West 146 168 8,000  Level Boston Center
Sun 10:05:56 AM 42.5364 -73.0092 295° West 145 167 8,000  Level Boston Center
Sun 10:06:57 AM 42.5508 -73.0658 289° West 145 167 8,000  Level Boston Center
Sun 10:07:57 AM 42.5631 -73.1194 287° West 144 166 8,000 -248 Level Boston Center
Sun 10:08:58 AM 42.5794 -73.1761 291° West 157 181 7,500 -590 Descending Boston Center
Sun 10:09:59 AM 42.5956 -73.2325 291° West 170 196 6,800 -645 Descending Boston Center
Sun 10:10:59 AM 42.6119 -73.2978 289° West 175 201 6,200 -678 Descending Boston Center
Sun 10:11:54 AM 42.6281 -73.3517 292° West 177 204 5,500 -639 Descending Boston Center
Sun 10:13:01 AM 42.6506 -73.4167 295° West 175 201 4,900 -614 Descending Boston Center
Sun 10:14:01 AM 42.6708 -73.4792 294° West 172 198 4,200 -645 Descending Boston Center
Sun 10:15:02 AM 42.6931 -73.5389 297° West 173 199 3,600 -492 Descending Boston Center
Sun 10:16:03 AM 42.7175 -73.5931 302° West 169 194 3,200 -595 Descending Boston Center
Sun 10:17:03 AM 42.7419 -73.6528 299° West 173 199 2,400 -843 Descending Boston Center
Sun 10:18:04 AM 42.7517 -73.7125 283° West 181 208 1,500 -879 Descending Boston Center
Sun 10:18:59 AM 42.7489 -73.7689 266° West 158 182 700 -873 Descending Boston Center
Sun 10:20:00 AM 42.7333 -73.8000 288° West  Level FlightAware Approximate
Sun 10:27:00 AM 42.7491 -73.8020 288° West  Level Estimated
Sun 10:28:00 AM 42.7491 -73.8020 288° West  Level Estimated
Sun 10:29:00 AM 42.7491 -73.8020 288° West  Level Estimated

Login

Don't have an account? Register now (free) for customized features, flight alerts, and more!